Terminal Aerodrome Forecast
Issued by NWS Grand Forks, ND

Home | Current Version | Previous Version | Graphics & Text | Print | Product List | Glossary On
Versions: 1 2 3 4 5 6 7 8 9 10 11 12 13 14
000
FTUS43 KFGF 251720
TAFGFK
TAF
KGFK 251720Z 2518/2618 32012G20KT P6SM BKN040
      TEMPO 2518/2522 BKN025
     FM252200 33008KT P6SM BKN050
     FM260000 32004KT P6SM SCT090
     FM260200 22004KT P6SM FEW250
     FM261700 21008KT P6SM SCT250=

USA.gov is the U.S. government's official web portal to all federal, state and local government web resources and services.